CheckWX is a tool to help pilots better visualize weather data.  It is not intended as a substitute for an official pre-flight weather briefing.

09:00:57 UTC

KPBH METAR
Price County Airport
Phillips, Wisconsin, USA
Current

6 mins ago

KPBH 220855Z AUTO 13017G24KT 10SM -RA OVC024 09/06 A2984 RMK AO2 60002 T00850055
Observed
May-22 @ 08:55 UTC
Wind
  • 130° at 17 KTS
  • Gusting to 24 KTS
Visibility
10 SM
Flight Rules
MVFR
Conditions
Light Rain
Cloud Levels
  • Overcast at 2,400' AGL
Temperature
C / 48°F
Dewpoint
C / 43°F
Humidity
82%
Altimeter
29.84" Hg
Pressure
1010.52 hPa
Previous

26 mins ago

KPBH 220835Z AUTO 13015G24KT 10SM BKN024 BKN030 OVC038 09/06 A2983 RMK AO2 T00860055
Observed
May-22 @ 08:35 UTC
Wind
  • 130° at 15 KTS
  • Gusting to 24 KTS
Visibility
10 SM
Flight Rules
MVFR
Cloud Levels
  • Broken at 2,400' AGL
  • Broken at 3,000' AGL
  • Overcast at 3,800' AGL
Temperature
C / 48°F
Dewpoint
C / 43°F
Humidity
82%
Altimeter
29.83" Hg
Pressure
1010.12 hPa
Previous

46 mins ago

KPBH 220815Z AUTO 11010G20KT 10SM BKN026 BKN030 OVC044 09/06 A2982 RMK AO2 T00850057
Observed
May-22 @ 08:15 UTC
Wind
  • 110° at 10 KTS
  • Gusting to 20 KTS
Visibility
10 SM
Flight Rules
MVFR
Cloud Levels
  • Broken at 2,600' AGL
  • Broken at 3,000' AGL
  • Overcast at 4,400' AGL
Temperature
C / 48°F
Dewpoint
C / 43°F
Humidity
82%
Altimeter
29.82" Hg
Pressure
1009.82 hPa